sensor_id;sensor_type;location;lat;lon;timestamp;temperature;humidity
21612;DHT22;47005;52.292;13.452;2022-08-21T00:00:21;19.80;99.90
21612;DHT22;47005;52.292;13.452;2022-08-21T00:02:54;19.80;99.90
21612;DHT22;47005;52.292;13.452;2022-08-21T00:05:21;19.80;99.90
21612;DHT22;47005;52.292;13.452;2022-08-21T00:07:47;19.80;99.90
21612;DHT22;47005;52.292;13.452;2022-08-21T00:10:13;19.80;99.90
21612;DHT22;47005;52.292;13.452;2022-08-21T00:12:41;19.80;99.90
21612;DHT22;47005;52.292;13.452;2022-08-21T00:15:08;19.80;99.90
21612;DHT22;47005;52.292;13.452;2022-08-21T00:17:35;19.80;99.90
21612;DHT22;47005;52.292;13.452;2022-08-21T00:20:03;19.80;99.90
21612;DHT22;47005;52.292;13.452;2022-08-21T00:22:29;19.80;99.90
21612;DHT22;47005;52.292;13.452;2022-08-21T00:24:54;19.80;99.90
21612;DHT22;47005;52.292;13.452;2022-08-21T00:27:20;19.80;99.90
21612;DHT22;47005;52.292;13.452;2022-08-21T00:29:46;19.80;99.90
21612;DHT22;47005;52.292;13.452;2022-08-21T00:32:11;19.80;99.90
21612;DHT22;47005;52.292;13.452;2022-08-21T00:34:37;19.80;99.90
21612;DHT22;47005;52.292;13.452;2022-08-21T00:37:03;19.80;99.90
21612;DHT22;47005;52.292;13.452;2022-08-21T00:39:28;19.80;99.90
21612;DHT22;47005;52.292;13.452;2022-08-21T00:41:54;19.70;99.90
21612;DHT22;47005;52.292;13.452;2022-08-21T00:44:20;19.70;99.90
21612;DHT22;47005;52.292;13.452;2022-08-21T00:46:46;19.70;99.90
21612;DHT22;47005;52.292;13.452;2022-08-21T00:49:12;19.70;99.90
21612;DHT22;47005;52.292;13.452;2022-08-21T00:51:50;19.70;99.90
21612;DHT22;47005;52.292;13.452;2022-08-21T00:54:18;19.80;99.90
21612;DHT22;47005;52.292;13.452;2022-08-21T00:56:48;19.80;99.90
21612;DHT22;47005;52.292;13.452;2022-08-21T00:59:16;19.70;99.90
21612;DHT22;47005;52.292;13.452;2022-08-21T01:01:43;19.70;99.90
21612;DHT22;47005;52.292;13.452;2022-08-21T01:04:08;19.70;99.90
21612;DHT22;47005;52.292;13.452;2022-08-21T01:06:34;19.70;99.90
21612;DHT22;47005;52.292;13.452;2022-08-21T01:09:00;19.70;99.90
21612;DHT22;47005;52.292;13.452;2022-08-21T01:11:26;19.70;99.90
21612;DHT22;47005;52.292;13.452;2022-08-21T01:13:51;19.70;99.90
21612;DHT22;47005;52.292;13.452;2022-08-21T01:16:19;19.70;99.90
21612;DHT22;47005;52.292;13.452;2022-08-21T01:18:45;19.70;99.90
21612;DHT22;47005;52.292;13.452;2022-08-21T01:21:24;19.70;99.90
21612;DHT22;47005;52.292;13.452;2022-08-21T01:23:53;19.70;99.90
21612;DHT22;47005;52.292;13.452;2022-08-21T01:26:23;19.70;99.90
21612;DHT22;47005;52.292;13.452;2022-08-21T01:31:29;19.70;99.90
21612;DHT22;47005;52.292;13.452;2022-08-21T01:33:57;19.70;99.90
21612;DHT22;47005;52.292;13.452;2022-08-21T01:36:23;19.70;99.90
21612;DHT22;47005;52.292;13.452;2022-08-21T01:38:49;19.70;99.90
21612;DHT22;47005;52.292;13.452;2022-08-21T01:41:15;19.70;99.90
21612;DHT22;47005;52.292;13.452;2022-08-21T01:43:42;19.70;99.90
21612;DHT22;47005;52.292;13.452;2022-08-21T01:46:09;19.70;99.90
21612;DHT22;47005;52.292;13.452;2022-08-21T01:48:35;19.70;99.90
21612;DHT22;47005;52.292;13.452;2022-08-21T01:51:01;19.70;99.90
21612;DHT22;47005;52.292;13.452;2022-08-21T01:53:27;19.70;99.90
21612;DHT22;47005;52.292;13.452;2022-08-21T01:55:52;19.70;99.90
21612;DHT22;47005;52.292;13.452;2022-08-21T01:58:18;19.70;99.90
21612;DHT22;47005;52.292;13.452;2022-08-21T02:00:44;19.70;99.90
21612;DHT22;47005;52.292;13.452;2022-08-21T02:03:09;19.60;99.90
21612;DHT22;47005;52.292;13.452;2022-08-21T02:05:35;19.60;99.90
21612;DHT22;47005;52.292;13.452;2022-08-21T02:08:01;19.60;99.90
21612;DHT22;47005;52.292;13.452;2022-08-21T02:10:30;19.60;99.90
21612;DHT22;47005;52.292;13.452;2022-08-21T02:12:56;19.60;99.90
21612;DHT22;47005;52.292;13.452;2022-08-21T02:15:22;19.60;99.90
21612;DHT22;47005;52.292;13.452;2022-08-21T02:17:51;19.60;99.90
21612;DHT22;47005;52.292;13.452;2022-08-21T02:20:27;19.60;99.90
21612;DHT22;47005;52.292;13.452;2022-08-21T02:22:53;19.60;99.90
21612;DHT22;47005;52.292;13.452;2022-08-21T02:25:22;19.60;99.90
21612;DHT22;47005;52.292;13.452;2022-08-21T02:27:49;19.60;99.90
21612;DHT22;47005;52.292;13.452;2022-08-21T02:30:18;19.60;99.90
21612;DHT22;47005;52.292;13.452;2022-08-21T02:32:44;19.50;99.90
21612;DHT22;47005;52.292;13.452;2022-08-21T02:35:10;19.50;99.90
21612;DHT22;47005;52.292;13.452;2022-08-21T02:40:13;19.50;99.90
21612;DHT22;47005;52.292;13.452;2022-08-21T02:42:39;19.50;99.90
21612;DHT22;47005;52.292;13.452;2022-08-21T02:45:06;19.50;99.90
21612;DHT22;47005;52.292;13.452;2022-08-21T02:47:32;19.50;99.90
21612;DHT22;47005;52.292;13.452;2022-08-21T02:49:57;19.50;99.90
21612;DHT22;47005;52.292;13.452;2022-08-21T02:52:23;19.60;99.90
21612;DHT22;47005;52.292;13.452;2022-08-21T02:54:49;19.50;99.90
21612;DHT22;47005;52.292;13.452;2022-08-21T02:57:15;19.50;99.90
21612;DHT22;47005;52.292;13.452;2022-08-21T02:59:40;19.50;99.90
21612;DHT22;47005;52.292;13.452;2022-08-21T03:02:06;19.40;99.90
21612;DHT22;47005;52.292;13.452;2022-08-21T03:04:32;19.40;99.90
21612;DHT22;47005;52.292;13.452;2022-08-21T03:06:57;19.40;99.90
21612;DHT22;47005;52.292;13.452;2022-08-21T03:09:23;19.40;99.90
21612;DHT22;47005;52.292;13.452;2022-08-21T03:11:50;19.40;99.90
21612;DHT22;47005;52.292;13.452;2022-08-21T03:14:17;19.40;99.90
21612;DHT22;47005;52.292;13.452;2022-08-21T03:16:43;19.40;99.90
21612;DHT22;47005;52.292;13.452;2022-08-21T03:19:09;19.30;99.90
21612;DHT22;47005;52.292;13.452;2022-08-21T03:21:34;19.30;99.90
21612;DHT22;47005;52.292;13.452;2022-08-21T03:24:00;19.30;99.90
21612;DHT22;47005;52.292;13.452;2022-08-21T03:26:26;19.30;99.90
21612;DHT22;47005;52.292;13.452;2022-08-21T03:28:51;19.30;99.90
21612;DHT22;47005;52.292;13.452;2022-08-21T03:31:17;19.30;99.90
21612;DHT22;47005;52.292;13.452;2022-08-21T03:33:43;19.30;99.90
21612;DHT22;47005;52.292;13.452;2022-08-21T03:36:09;19.20;99.90
21612;DHT22;47005;52.292;13.452;2022-08-21T03:38:36;19.30;99.90
21612;DHT22;47005;52.292;13.452;2022-08-21T03:41:03;19.30;99.90
21612;DHT22;47005;52.292;13.452;2022-08-21T03:43:31;19.20;99.90
21612;DHT22;47005;52.292;13.452;2022-08-21T03:45:57;19.20;99.90
21612;DHT22;47005;52.292;13.452;2022-08-21T03:48:23;19.20;99.90
21612;DHT22;47005;52.292;13.452;2022-08-21T03:50:48;19.20;99.90
21612;DHT22;47005;52.292;13.452;2022-08-21T03:53:17;19.20;99.90
21612;DHT22;47005;52.292;13.452;2022-08-21T03:55:44;19.20;99.90
21612;DHT22;47005;52.292;13.452;2022-08-21T03:58:09;19.20;99.90
21612;DHT22;47005;52.292;13.452;2022-08-21T04:00:35;19.10;99.90
21612;DHT22;47005;52.292;13.452;2022-08-21T04:03:01;19.10;99.90
21612;DHT22;47005;52.292;13.452;2022-08-21T04:05:26;19.10;99.90
21612;DHT22;47005;52.292;13.452;2022-08-21T04:07:54;19.10;99.90
21612;DHT22;47005;52.292;13.452;2022-08-21T04:10:20;19.10;99.90
21612;DHT22;47005;52.292;13.452;2022-08-21T04:12:45;19.00;99.90
21612;DHT22;47005;52.292;13.452;2022-08-21T04:15:11;19.00;99.90
21612;DHT22;47005;52.292;13.452;2022-08-21T04:17:38;19.00;99.90
21612;DHT22;47005;52.292;13.452;2022-08-21T04:20:04;19.10;99.90
21612;DHT22;47005;52.292;13.452;2022-08-21T04:22:30;19.00;99.90
21612;DHT22;47005;52.292;13.452;2022-08-21T04:24:55;19.00;99.90
21612;DHT22;47005;52.292;13.452;2022-08-21T04:27:21;19.00;99.90
21612;DHT22;47005;52.292;13.452;2022-08-21T04:29:46;19.00;99.90
21612;DHT22;47005;52.292;13.452;2022-08-21T04:32:12;19.00;99.90
21612;DHT22;47005;52.292;13.452;2022-08-21T04:34:38;19.00;99.90
21612;DHT22;47005;52.292;13.452;2022-08-21T04:37:04;19.00;99.90
21612;DHT22;47005;52.292;13.452;2022-08-21T04:39:29;18.90;99.90
21612;DHT22;47005;52.292;13.452;2022-08-21T04:41:55;18.90;99.90
21612;DHT22;47005;52.292;13.452;2022-08-21T04:44:21;18.90;99.90
21612;DHT22;47005;52.292;13.452;2022-08-21T04:46:46;18.90;99.90
21612;DHT22;47005;52.292;13.452;2022-08-21T04:49:12;18.90;99.90
21612;DHT22;47005;52.292;13.452;2022-08-21T04:51:38;18.80;99.90
21612;DHT22;47005;52.292;13.452;2022-08-21T04:56:42;18.80;99.90
21612;DHT22;47005;52.292;13.452;2022-08-21T04:59:18;18.80;99.90
21612;DHT22;47005;52.292;13.452;2022-08-21T05:01:46;18.80;99.90
21612;DHT22;47005;52.292;13.452;2022-08-21T05:04:15;18.80;99.90
21612;DHT22;47005;52.292;13.452;2022-08-21T05:06:44;18.80;99.90
21612;DHT22;47005;52.292;13.452;2022-08-21T05:09:15;18.80;99.90
21612;DHT22;47005;52.292;13.452;2022-08-21T05:11:41;18.80;99.90
21612;DHT22;47005;52.292;13.452;2022-08-21T05:14:08;18.80;99.90
21612;DHT22;47005;52.292;13.452;2022-08-21T05:16:34;18.80;99.90
21612;DHT22;47005;52.292;13.452;2022-08-21T05:19:00;18.80;99.90
21612;DHT22;47005;52.292;13.452;2022-08-21T05:21:26;18.80;99.90
21612;DHT22;47005;52.292;13.452;2022-08-21T05:23:52;18.80;99.90
21612;DHT22;47005;52.292;13.452;2022-08-21T05:26:17;18.80;99.90
21612;DHT22;47005;52.292;13.452;2022-08-21T05:28:43;18.80;99.90
21612;DHT22;47005;52.292;13.452;2022-08-21T05:31:08;18.80;99.90
21612;DHT22;47005;52.292;13.452;2022-08-21T05:33:34;18.70;99.90
21612;DHT22;47005;52.292;13.452;2022-08-21T05:36:00;18.70;99.90
21612;DHT22;47005;52.292;13.452;2022-08-21T05:38:26;18.80;99.90
21612;DHT22;47005;52.292;13.452;2022-08-21T05:40:53;18.70;99.90
21612;DHT22;47005;52.292;13.452;2022-08-21T05:43:20;18.70;99.90
21612;DHT22;47005;52.292;13.452;2022-08-21T05:45:46;18.70;99.90
21612;DHT22;47005;52.292;13.452;2022-08-21T05:48:18;18.70;99.90
21612;DHT22;47005;52.292;13.452;2022-08-21T05:50:45;18.70;99.90
21612;DHT22;47005;52.292;13.452;2022-08-21T05:53:12;18.70;99.90
21612;DHT22;47005;52.292;13.452;2022-08-21T05:55:38;18.70;99.90
21612;DHT22;47005;52.292;13.452;2022-08-21T05:58:04;18.70;99.90
21612;DHT22;47005;52.292;13.452;2022-08-21T06:00:31;18.70;99.90
21612;DHT22;47005;52.292;13.452;2022-08-21T06:02:57;18.70;99.90
21612;DHT22;47005;52.292;13.452;2022-08-21T06:05:23;18.70;99.90
21612;DHT22;47005;52.292;13.452;2022-08-21T06:07:49;18.70;99.90
21612;DHT22;47005;52.292;13.452;2022-08-21T06:10:14;18.70;99.90
21612;DHT22;47005;52.292;13.452;2022-08-21T06:12:40;18.70;99.90
21612;DHT22;47005;52.292;13.452;2022-08-21T06:15:06;18.70;99.90
21612;DHT22;47005;52.292;13.452;2022-08-21T06:17:32;18.70;99.90
21612;DHT22;47005;52.292;13.452;2022-08-21T06:19:58;18.70;99.90
21612;DHT22;47005;52.292;13.452;2022-08-21T06:22:23;18.70;99.90
21612;DHT22;47005;52.292;13.452;2022-08-21T06:24:49;18.70;99.90
21612;DHT22;47005;52.292;13.452;2022-08-21T06:27:14;18.70;99.90
21612;DHT22;47005;52.292;13.452;2022-08-21T06:29:41;18.70;99.90
21612;DHT22;47005;52.292;13.452;2022-08-21T06:32:10;18.70;99.90
21612;DHT22;47005;52.292;13.452;2022-08-21T06:34:37;18.70;99.90
21612;DHT22;47005;52.292;13.452;2022-08-21T06:37:03;18.70;99.90
21612;DHT22;47005;52.292;13.452;2022-08-21T06:39:29;18.70;99.90
21612;DHT22;47005;52.292;13.452;2022-08-21T06:41:55;18.70;99.90
21612;DHT22;47005;52.292;13.452;2022-08-21T06:44:21;18.70;99.90
21612;DHT22;47005;52.292;13.452;2022-08-21T06:46:46;18.70;99.90
21612;DHT22;47005;52.292;13.452;2022-08-21T06:49:12;18.70;99.90
21612;DHT22;47005;52.292;13.452;2022-08-21T06:51:38;18.70;99.90
21612;DHT22;47005;52.292;13.452;2022-08-21T06:54:04;18.80;99.90
21612;DHT22;47005;52.292;13.452;2022-08-21T06:56:29;18.80;99.90
21612;DHT22;47005;52.292;13.452;2022-08-21T06:58:56;18.80;99.90
21612;DHT22;47005;52.292;13.452;2022-08-21T07:01:24;18.80;99.90
21612;DHT22;47005;52.292;13.452;2022-08-21T07:03:50;18.80;99.90
21612;DHT22;47005;52.292;13.452;2022-08-21T07:06:16;18.80;99.90
21612;DHT22;47005;52.292;13.452;2022-08-21T07:08:42;18.80;99.90
21612;DHT22;47005;52.292;13.452;2022-08-21T07:11:19;18.80;99.90
21612;DHT22;47005;52.292;13.452;2022-08-21T07:13:44;18.80;99.90
21612;DHT22;47005;52.292;13.452;2022-08-21T07:16:10;18.80;99.90
21612;DHT22;47005;52.292;13.452;2022-08-21T07:18:36;18.80;99.90
21612;DHT22;47005;52.292;13.452;2022-08-21T07:21:03;18.80;99.90
21612;DHT22;47005;52.292;13.452;2022-08-21T07:23:43;18.90;99.90
21612;DHT22;47005;52.292;13.452;2022-08-21T07:26:10;18.90;99.90
21612;DHT22;47005;52.292;13.452;2022-08-21T07:28:35;18.90;99.90
21612;DHT22;47005;52.292;13.452;2022-08-21T07:31:02;18.90;99.90
21612;DHT22;47005;52.292;13.452;2022-08-21T07:33:30;18.90;99.90
21612;DHT22;47005;52.292;13.452;2022-08-21T07:35:56;19.00;99.90
21612;DHT22;47005;52.292;13.452;2022-08-21T07:38:22;19.00;99.90
21612;DHT22;47005;52.292;13.452;2022-08-21T07:40:49;19.00;99.90
21612;DHT22;47005;52.292;13.452;2022-08-21T07:43:15;19.00;99.90
21612;DHT22;47005;52.292;13.452;2022-08-21T07:45:44;19.00;99.90
21612;DHT22;47005;52.292;13.452;2022-08-21T07:48:10;19.00;99.90
21612;DHT22;47005;52.292;13.452;2022-08-21T07:50:36;19.10;99.90
21612;DHT22;47005;52.292;13.452;2022-08-21T07:53:03;19.10;99.90
21612;DHT22;47005;52.292;13.452;2022-08-21T07:55:29;19.10;99.90
21612;DHT22;47005;52.292;13.452;2022-08-21T07:57:55;19.10;99.90
21612;DHT22;47005;52.292;13.452;2022-08-21T08:00:23;19.10;99.90
21612;DHT22;47005;52.292;13.452;2022-08-21T08:02:51;19.20;99.90
21612;DHT22;47005;52.292;13.452;2022-08-21T08:05:20;19.20;99.90
21612;DHT22;47005;52.292;13.452;2022-08-21T08:07:46;19.20;99.90
21612;DHT22;47005;52.292;13.452;2022-08-21T08:10:13;19.20;99.90
21612;DHT22;47005;52.292;13.452;2022-08-21T08:12:40;19.30;99.90
21612;DHT22;47005;52.292;13.452;2022-08-21T08:15:09;19.30;99.90
21612;DHT22;47005;52.292;13.452;2022-08-21T08:17:35;19.30;99.90
21612;DHT22;47005;52.292;13.452;2022-08-21T08:20:00;19.30;99.90
21612;DHT22;47005;52.292;13.452;2022-08-21T08:22:26;19.40;99.90
21612;DHT22;47005;52.292;13.452;2022-08-21T08:24:53;19.40;99.90
21612;DHT22;47005;52.292;13.452;2022-08-21T08:27:19;19.40;99.90
21612;DHT22;47005;52.292;13.452;2022-08-21T08:29:45;19.50;99.90
21612;DHT22;47005;52.292;13.452;2022-08-21T08:32:11;19.50;99.90
21612;DHT22;47005;52.292;13.452;2022-08-21T08:34:38;19.50;99.90
21612;DHT22;47005;52.292;13.452;2022-08-21T08:37:06;19.50;99.90
21612;DHT22;47005;52.292;13.452;2022-08-21T08:39:32;19.60;99.90
21612;DHT22;47005;52.292;13.452;2022-08-21T08:42:20;19.60;99.90
21612;DHT22;47005;52.292;13.452;2022-08-21T08:44:57;19.60;99.90
21612;DHT22;47005;52.292;13.452;2022-08-21T08:47:25;19.60;99.90
21612;DHT22;47005;52.292;13.452;2022-08-21T08:52:33;19.70;99.90
21612;DHT22;47005;52.292;13.452;2022-08-21T08:55:12;19.70;99.90
21612;DHT22;47005;52.292;13.452;2022-08-21T08:57:46;19.80;99.90
21612;DHT22;47005;52.292;13.452;2022-08-21T09:00:15;19.80;99.90
21612;DHT22;47005;52.292;13.452;2022-08-21T09:02:45;19.80;99.90
21612;DHT22;47005;52.292;13.452;2022-08-21T09:05:25;19.80;99.90
21612;DHT22;47005;52.292;13.452;2022-08-21T09:10:45;19.80;99.90
21612;DHT22;47005;52.292;13.452;2022-08-21T09:13:28;19.90;99.90
21612;DHT22;47005;52.292;13.452;2022-08-21T09:21:21;19.90;99.90
21612;DHT22;47005;52.292;13.452;2022-08-21T09:26:45;19.90;99.90
21612;DHT22;47005;52.292;13.452;2022-08-21T09:29:13;19.90;99.90
21612;DHT22;47005;52.292;13.452;2022-08-21T09:31:39;19.90;99.90
21612;DHT22;47005;52.292;13.452;2022-08-21T09:34:10;20.00;99.90
21612;DHT22;47005;52.292;13.452;2022-08-21T09:39:03;20.00;99.90
21612;DHT22;47005;52.292;13.452;2022-08-21T09:41:34;20.00;99.90
21612;DHT22;47005;52.292;13.452;2022-08-21T09:44:02;20.00;99.90
21612;DHT22;47005;52.292;13.452;2022-08-21T09:46:28;20.10;99.90
21612;DHT22;47005;52.292;13.452;2022-08-21T09:48:56;20.10;99.90
21612;DHT22;47005;52.292;13.452;2022-08-21T09:51:26;20.10;99.90
21612;DHT22;47005;52.292;13.452;2022-08-21T09:56:39;20.10;99.90
21612;DHT22;47005;52.292;13.452;2022-08-21T10:01:54;20.10;99.90
21612;DHT22;47005;52.292;13.452;2022-08-21T10:04:28;20.10;99.90
21612;DHT22;47005;52.292;13.452;2022-08-21T10:06:54;20.20;99.90
21612;DHT22;47005;52.292;13.452;2022-08-21T10:09:20;20.20;99.90
21612;DHT22;47005;52.292;13.452;2022-08-21T10:12:05;20.20;99.90
21612;DHT22;47005;52.292;13.452;2022-08-21T10:25:11;20.30;99.90
21612;DHT22;47005;52.292;13.452;2022-08-21T10:44:23;20.50;99.90
21612;DHT22;47005;52.292;13.452;2022-08-21T10:55:18;20.60;99.90
21612;DHT22;47005;52.292;13.452;2022-08-21T11:00:36;20.60;99.90
21612;DHT22;47005;52.292;13.452;2022-08-21T11:05:54;20.70;99.70
21612;DHT22;47005;52.292;13.452;2022-08-21T11:08:28;20.70;99.50
21612;DHT22;47005;52.292;13.452;2022-08-21T11:10:59;20.70;99.00
21612;DHT22;47005;52.292;13.452;2022-08-21T11:16:24;20.80;97.00
21612;DHT22;47005;52.292;13.452;2022-08-21T11:19:00;20.70;98.10
21612;DHT22;47005;52.292;13.452;2022-08-21T11:21:29;20.80;95.50
21612;DHT22;47005;52.292;13.452;2022-08-21T11:29:16;20.90;96.70
21612;DHT22;47005;52.292;13.452;2022-08-21T11:34:35;20.90;94.00
21612;DHT22;47005;52.292;13.452;2022-08-21T11:37:22;21.00;95.80
21612;DHT22;47005;52.292;13.452;2022-08-21T11:39:58;21.00;93.20
21612;DHT22;47005;52.292;13.452;2022-08-21T11:50:41;21.20;94.50
21612;DHT22;47005;52.292;13.452;2022-08-21T11:53:09;21.20;94.30
21612;DHT22;47005;52.292;13.452;2022-08-21T11:58:12;21.20;94.70
21612;DHT22;47005;52.292;13.452;2022-08-21T12:00:45;21.20;92.10
21612;DHT22;47005;52.292;13.452;2022-08-21T12:03:22;21.20;93.20
21612;DHT22;47005;52.292;13.452;2022-08-21T12:06:10;21.20;93.50
21612;DHT22;47005;52.292;13.452;2022-08-21T12:08:42;21.30;93.90
21612;DHT22;47005;52.292;13.452;2022-08-21T12:21:30;21.40;93.50
21612;DHT22;47005;52.292;13.452;2022-08-21T12:26:52;21.40;92.30
21612;DHT22;47005;52.292;13.452;2022-08-21T12:32:00;21.50;91.30
21612;DHT22;47005;52.292;13.452;2022-08-21T12:34:34;21.50;91.60
21612;DHT22;47005;52.292;13.452;2022-08-21T12:37:16;21.50;91.10
21612;DHT22;47005;52.292;13.452;2022-08-21T12:39:47;21.50;91.00
21612;DHT22;47005;52.292;13.452;2022-08-21T12:42:20;21.50;90.10
21612;DHT22;47005;52.292;13.452;2022-08-21T12:44:54;21.50;89.50
21612;DHT22;47005;52.292;13.452;2022-08-21T12:50:13;21.60;89.60
21612;DHT22;47005;52.292;13.452;2022-08-21T12:52:45;21.60;90.70
21612;DHT22;47005;52.292;13.452;2022-08-21T12:55:15;21.60;90.00
21612;DHT22;47005;52.292;13.452;2022-08-21T12:57:42;21.60;89.70
21612;DHT22;47005;52.292;13.452;2022-08-21T13:00:11;21.70;87.00
21612;DHT22;47005;52.292;13.452;2022-08-21T13:02:43;21.70;84.90
21612;DHT22;47005;52.292;13.452;2022-08-21T13:05:13;21.70;88.70
21612;DHT22;47005;52.292;13.452;2022-08-21T13:07:45;21.70;86.80
21612;DHT22;47005;52.292;13.452;2022-08-21T13:10:23;21.70;86.30
21612;DHT22;47005;52.292;13.452;2022-08-21T13:12:50;21.70;83.10
21612;DHT22;47005;52.292;13.452;2022-08-21T13:15:24;21.80;84.80
21612;DHT22;47005;52.292;13.452;2022-08-21T13:17:50;21.80;85.10
21612;DHT22;47005;52.292;13.452;2022-08-21T13:20:22;21.90;82.50
21612;DHT22;47005;52.292;13.452;2022-08-21T13:22:48;22.10;85.80
21612;DHT22;47005;52.292;13.452;2022-08-21T13:25:17;22.20;87.80
21612;DHT22;47005;52.292;13.452;2022-08-21T13:27:57;22.30;83.50
21612;DHT22;47005;52.292;13.452;2022-08-21T13:30:23;22.40;85.20
21612;DHT22;47005;52.292;13.452;2022-08-21T13:32:57;22.50;85.00
21612;DHT22;47005;52.292;13.452;2022-08-21T13:35:35;22.50;84.70
21612;DHT22;47005;52.292;13.452;2022-08-21T13:38:02;22.60;84.40
21612;DHT22;47005;52.292;13.452;2022-08-21T13:42:57;22.60;84.50
21612;DHT22;47005;52.292;13.452;2022-08-21T13:45:31;22.60;84.90
21612;DHT22;47005;52.292;13.452;2022-08-21T13:47:57;22.60;84.00
21612;DHT22;47005;52.292;13.452;2022-08-21T13:50:25;22.60;83.50
21612;DHT22;47005;52.292;13.452;2022-08-21T13:53:22;22.50;85.20
21612;DHT22;47005;52.292;13.452;2022-08-21T13:55:48;22.50;86.60
21612;DHT22;47005;52.292;13.452;2022-08-21T13:58:25;22.40;83.60
21612;DHT22;47005;52.292;13.452;2022-08-21T14:00:51;22.40;85.30
21612;DHT22;47005;52.292;13.452;2022-08-21T14:03:35;22.40;86.30
21612;DHT22;47005;52.292;13.452;2022-08-21T14:06:03;22.40;85.30
21612;DHT22;47005;52.292;13.452;2022-08-21T14:08:37;22.30;85.90
21612;DHT22;47005;52.292;13.452;2022-08-21T14:11:06;22.30;86.60
21612;DHT22;47005;52.292;13.452;2022-08-21T14:13:48;22.30;87.30
21612;DHT22;47005;52.292;13.452;2022-08-21T14:16:18;22.30;87.30
21612;DHT22;47005;52.292;13.452;2022-08-21T14:21:41;22.20;88.70
21612;DHT22;47005;52.292;13.452;2022-08-21T14:26:48;22.20;89.80
21612;DHT22;47005;52.292;13.452;2022-08-21T14:29:15;22.20;89.80
21612;DHT22;47005;52.292;13.452;2022-08-21T14:31:42;22.20;89.40
21612;DHT22;47005;52.292;13.452;2022-08-21T14:34:10;22.20;89.90
21612;DHT22;47005;52.292;13.452;2022-08-21T14:36:37;22.20;90.00
21612;DHT22;47005;52.292;13.452;2022-08-21T14:39:02;22.20;90.20
21612;DHT22;47005;52.292;13.452;2022-08-21T14:41:28;22.10;90.40
21612;DHT22;47005;52.292;13.452;2022-08-21T14:43:55;22.10;90.30
21612;DHT22;47005;52.292;13.452;2022-08-21T14:46:25;22.10;90.60
21612;DHT22;47005;52.292;13.452;2022-08-21T14:48:52;22.20;90.90
21612;DHT22;47005;52.292;13.452;2022-08-21T14:51:17;22.20;91.10
21612;DHT22;47005;52.292;13.452;2022-08-21T14:53:43;22.10;91.10
21612;DHT22;47005;52.292;13.452;2022-08-21T14:56:10;22.10;91.10
21612;DHT22;47005;52.292;13.452;2022-08-21T14:58:38;22.10;91.20
21612;DHT22;47005;52.292;13.452;2022-08-21T15:01:06;22.10;91.20
21612;DHT22;47005;52.292;13.452;2022-08-21T15:03:33;22.10;91.50
21612;DHT22;47005;52.292;13.452;2022-08-21T15:05:59;22.10;91.50
21612;DHT22;47005;52.292;13.452;2022-08-21T15:08:25;22.10;91.60
21612;DHT22;47005;52.292;13.452;2022-08-21T15:10:52;22.10;91.70
21612;DHT22;47005;52.292;13.452;2022-08-21T15:13:18;22.10;91.90
21612;DHT22;47005;52.292;13.452;2022-08-21T15:15:46;22.10;91.90
21612;DHT22;47005;52.292;13.452;2022-08-21T15:18:13;22.10;91.90
21612;DHT22;47005;52.292;13.452;2022-08-21T15:20:39;22.10;92.50
21612;DHT22;47005;52.292;13.452;2022-08-21T15:23:06;22.10;92.00
21612;DHT22;47005;52.292;13.452;2022-08-21T15:25:32;22.10;92.00
21612;DHT22;47005;52.292;13.452;2022-08-21T15:27:59;22.10;92.30
21612;DHT22;47005;52.292;13.452;2022-08-21T15:30:25;22.10;92.30
21612;DHT22;47005;52.292;13.452;2022-08-21T15:32:51;22.10;92.40
21612;DHT22;47005;52.292;13.452;2022-08-21T15:35:17;22.10;92.40
21612;DHT22;47005;52.292;13.452;2022-08-21T15:37:43;22.00;92.50
21612;DHT22;47005;52.292;13.452;2022-08-21T15:40:09;22.00;92.50
21612;DHT22;47005;52.292;13.452;2022-08-21T15:42:37;22.00;92.60
21612;DHT22;47005;52.292;13.452;2022-08-21T15:45:03;22.00;92.70
21612;DHT22;47005;52.292;13.452;2022-08-21T15:47:32;22.00;92.70
21612;DHT22;47005;52.292;13.452;2022-08-21T15:49:59;22.00;92.90
21612;DHT22;47005;52.292;13.452;2022-08-21T15:52:25;22.00;93.00
21612;DHT22;47005;52.292;13.452;2022-08-21T15:54:51;22.00;93.10
21612;DHT22;47005;52.292;13.452;2022-08-21T15:57:20;22.00;93.20
21612;DHT22;47005;52.292;13.452;2022-08-21T15:59:53;21.90;93.30
21612;DHT22;47005;52.292;13.452;2022-08-21T16:02:24;21.90;93.40
21612;DHT22;47005;52.292;13.452;2022-08-21T16:04:50;21.90;93.50
21612;DHT22;47005;52.292;13.452;2022-08-21T16:07:16;21.90;93.60
21612;DHT22;47005;52.292;13.452;2022-08-21T16:09:42;21.90;93.70
21612;DHT22;47005;52.292;13.452;2022-08-21T16:12:11;21.80;93.80
21612;DHT22;47005;52.292;13.452;2022-08-21T16:14:38;21.80;93.80
21612;DHT22;47005;52.292;13.452;2022-08-21T16:17:07;21.80;93.90
21612;DHT22;47005;52.292;13.452;2022-08-21T16:19:34;21.80;93.90
21612;DHT22;47005;52.292;13.452;2022-08-21T16:22:00;21.70;94.00
21612;DHT22;47005;52.292;13.452;2022-08-21T16:24:26;21.70;94.00
21612;DHT22;47005;52.292;13.452;2022-08-21T16:26:52;21.70;94.10
21612;DHT22;47005;52.292;13.452;2022-08-21T16:29:18;21.70;94.20
21612;DHT22;47005;52.292;13.452;2022-08-21T16:31:44;21.70;94.20
21612;DHT22;47005;52.292;13.452;2022-08-21T16:34:17;21.60;94.20
21612;DHT22;47005;52.292;13.452;2022-08-21T16:36:44;21.60;94.30
21612;DHT22;47005;52.292;13.452;2022-08-21T16:39:10;21.60;94.30
21612;DHT22;47005;52.292;13.452;2022-08-21T16:41:36;21.60;94.40
21612;DHT22;47005;52.292;13.452;2022-08-21T16:44:02;21.50;94.40
21612;DHT22;47005;52.292;13.452;2022-08-21T16:46:33;21.50;94.50
21612;DHT22;47005;52.292;13.452;2022-08-21T16:48:59;21.50;94.60
21612;DHT22;47005;52.292;13.452;2022-08-21T16:51:25;21.50;94.60
21612;DHT22;47005;52.292;13.452;2022-08-21T16:53:51;21.40;94.70
21612;DHT22;47005;52.292;13.452;2022-08-21T16:56:17;21.40;94.90
21612;DHT22;47005;52.292;13.452;2022-08-21T16:58:46;21.40;95.30
21612;DHT22;47005;52.292;13.452;2022-08-21T17:01:15;21.40;94.90
21612;DHT22;47005;52.292;13.452;2022-08-21T17:03:43;21.40;95.00
21612;DHT22;47005;52.292;13.452;2022-08-21T17:06:11;21.40;95.00
21612;DHT22;47005;52.292;13.452;2022-08-21T17:08:37;21.30;95.10
21612;DHT22;47005;52.292;13.452;2022-08-21T17:11:05;21.30;95.10
21612;DHT22;47005;52.292;13.452;2022-08-21T17:13:31;21.30;95.20
21612;DHT22;47005;52.292;13.452;2022-08-21T17:15:56;21.30;95.30
21612;DHT22;47005;52.292;13.452;2022-08-21T17:18:23;21.30;95.40